Thunder radar more information blitzortung!


Radar de pluja more information rain snow radar


Visita la nostra xarxa de llocs de meteo:

Template documentation
and downloads

And another site



No particular awareness of the weather is required.    There are no Weather-warnings

Pagina Historial Weather Underground text

Diari Resum February 23, 2018 Unitats:  Mètric    Imperial   Tant
« Previous Dia
SegĂźent Dia »
Diari Setmana Mensual Anual Personalitzada
  Actual: Maxima: Minima: Media:
Temperatura: -15.7 °C -17.8 °C -17.1 °C -14.5 °C
Punt de rosada: -20.2 °C -17.8 °C -21 °C -19.6 °C
Humitat: 56 % Humidity % 32 % 53 %
Wind Speed: 0 km/h 0 km/h 0 km/h 6.9 km/h
RĂ fegues de vent: 0 km/h 0 km/h - -
Vent:Calm - - SSE
Pression baro: 34029.3 hPa 0 hPa 33958.2 hPa -
Precipitacions: 0 mm      
Historical Graphs
 
 
Dades de taula per February 23, 2018
Temps Temperatura Punt de rosada Pression baro Vent Wind Speed RĂ fegues de vent Humitat Rainfall Rate (Hourly)
-17.8 °C -17.8 °C 0 hPa Calm     Humidity % 0 mm
00:04 -14.6 °C -18.4 °C 34063.2 hPa East 9 km/h 9 km/h 61 % 0 mm
00:09 -14.6 °C -18.4 °C 34063.2 hPa ESE 9 km/h 9 km/h 61 % 0 mm
00:14 -14.6 °C -18.4 °C 34063.2 hPa East 9.8 km/h 9.8 km/h 61 % 0 mm
00:19 -14.7 °C -18.7 °C 34063.2 hPa NE 9 km/h 9 km/h 60 % 0 mm
00:24 -14.8 °C -18.8 °C 34063.2 hPa East 9.8 km/h 9.8 km/h 60 % 0 mm
00:29 -14.9 °C -19 °C 34063.2 hPa SE 11.9 km/h 11.9 km/h 59 % 0 mm
00:34 -15 °C -19.1 °C 34063.2 hPa East 11.9 km/h 11.9 km/h 59 % 0 mm
00:39 -15.1 °C -19.1 °C 34029.3 hPa ESE 9 km/h 9 km/h 59 % 0 mm
00:44 -15.1 °C -19.2 °C 34029.3 hPa ESE 11.9 km/h 11.9 km/h 59 % 0 mm
00:49 -15.2 °C -19.3 °C 34029.3 hPa SE 6 km/h 6 km/h 59 % 0 mm
00:54 -15.2 °C -19.3 °C 34029.3 hPa SE 9 km/h 9 km/h 59 % 0 mm
00:59 -15.3 °C -19.3 °C 34029.3 hPa East 9 km/h 9 km/h 59 % 0 mm
01:04 -15.3 °C -19.3 °C 34029.3 hPa ESE 9 km/h 9 km/h 59 % 0 mm
01:09 -15.3 °C -19.6 °C 34029.3 hPa ESE 6 km/h 6 km/h 58 % 0 mm
01:14 -15.4 °C -19.6 °C 34029.3 hPa ESE 5.6 km/h   58 % 0 mm
01:19 -15.4 °C -19.6 °C 34029.3 hPa East 6 km/h 6 km/h 58 % 0 mm
01:24 -15.4 °C -19.6 °C 34029.3 hPa ENE 6 km/h 6 km/h 58 % 0 mm
01:29 -15.5 °C -19.7 °C 34029.3 hPa ESE 6.3 km/h 6.3 km/h 58 % 0 mm
01:34 -15.5 °C -19.7 °C 34029.3 hPa SW 3.1 km/h   58 % 0 mm
01:39 -15.6 °C -19.7 °C 34029.3 hPa SW 3.1 km/h 3.1 km/h 59 % 0 mm
01:44 -15.7 °C -19.7 °C 34029.3 hPa SE 11.9 km/h 11.9 km/h 59 % 0 mm
01:49 -15.7 °C -19.7 °C 34029.3 hPa Calm     59 % 0 mm
01:54 -15.7 °C -19.7 °C 34029.3 hPa Calm     59 % 0 mm
01:59 -15.7 °C -19.6 °C 34029.3 hPa Calm     60 % 0 mm
02:04 -15.7 °C -19.6 °C 34029.3 hPa SSW 6 km/h 6 km/h 60 % 0 mm
02:09 -15.7 °C -19.6 °C 34029.3 hPa SSW 3.1 km/h 3.1 km/h 60 % 0 mm
02:14 -15.7 °C -19.6 °C 34029.3 hPa SSW 4.2 km/h 4.2 km/h 60 % 0 mm
02:19 -15.7 °C -19.5 °C 34029.3 hPa SW 5.6 km/h 5.6 km/h 61 % 0 mm
02:24 -15.7 °C -19.6 °C 34029.3 hPa SSW 6.8 km/h 6.8 km/h 60 % 0 mm
02:29 -15.7 °C -19.5 °C 34029.3 hPa SW 6 km/h 6 km/h 61 % 0 mm
02:34 -15.7 °C -19.5 °C 34029.3 hPa SW 6 km/h 6 km/h 61 % 0 mm
02:39 -15.7 °C -19.5 °C 34029.3 hPa WSW 3.1 km/h 3.1 km/h 61 % 0 mm
02:44 -15.6 °C -19.4 °C 34029.3 hPa WSW 3.7 km/h 3.7 km/h 61 % 0 mm
02:49 -15.6 °C -19.3 °C 34029.3 hPa SW 6 km/h   61 % 0 mm
02:54 -15.5 °C -19.3 °C 33992.1 hPa SW 3.1 km/h 3.1 km/h 61 % 0 mm
02:59 -15.5 °C -19.3 °C 33992.1 hPa West 6 km/h 6 km/h 61 % 0 mm
03:04 -15.5 °C -19.2 °C 33992.1 hPa SW 8.5 km/h 8.5 km/h 62 % 0 mm
03:09 -15.5 °C -19.2 °C 33992.1 hPa SW 6 km/h 6 km/h 62 % 0 mm
03:14 -15.5 °C -19.2 °C 33992.1 hPa SW 5.6 km/h   62 % 0 mm
03:19 -15.6 °C -19.1 °C 33992.1 hPa SW 6 km/h 6 km/h 63 % 0 mm
03:24 -15.6 °C -19.1 °C 34029.3 hPa WSW 3.1 km/h 3.1 km/h 63 % 0 mm
03:29 -15.6 °C -19.1 °C 34029.3 hPa Calm     64 % 0 mm
03:34 -15.7 °C -19.1 °C 34029.3 hPa SW 6 km/h 6 km/h 64 % 0 mm
03:39 -15.7 °C -19.2 °C 33992.1 hPa WSW 6 km/h 6 km/h 64 % 0 mm
03:44 -15.7 °C -19.2 °C 33992.1 hPa WSW 6 km/h 6 km/h 64 % 0 mm
03:49 -15.8 °C -19.3 °C 33992.1 hPa SW 6 km/h 6 km/h 64 % 0 mm
03:54 -15.9 °C -19.2 °C 33992.1 hPa SW 3.7 km/h 3.7 km/h 65 % 0 mm
03:59 -15.9 °C -19.3 °C 33992.1 hPa WSW 7.6 km/h 7.6 km/h 65 % 0 mm
04:04 -16 °C -19.3 °C 33992.1 hPa WSW 6 km/h 6 km/h 65 % 0 mm
04:09 -16.1 °C -19.3 °C 33992.1 hPa WSW 3.1 km/h 3.1 km/h 66 % 0 mm
04:14 -16.1 °C -19.3 °C 33992.1 hPa Calm     66 % 0 mm
04:19 -16.1 °C -19.1 °C 33992.1 hPa Calm     67 % 0 mm
04:24 -16.1 °C -19 °C 33992.1 hPa Calm     68 % 0 mm
04:29 -16.1 °C -19 °C 33992.1 hPa Calm     68 % 0 mm
04:34 -16.1 °C -19 °C 33992.1 hPa Calm     68 % 0 mm
04:39 -16.1 °C -19.1 °C 33992.1 hPa Calm     68 % 0 mm
04:44 -16.1 °C -19.1 °C 33992.1 hPa Calm     68 % 0 mm
04:49 -16.2 °C -19 °C 33992.1 hPa Calm     69 % 0 mm
04:54 -16.2 °C -19.2 °C 33958.2 hPa Calm     68 % 0 mm
04:59 -16.3 °C -19.1 °C 33958.2 hPa Calm     69 % 0 mm
05:04 -16.3 °C -19.2 °C 33958.2 hPa SSE 3.1 km/h 3.1 km/h 69 % 0 mm
05:09 -16.3 °C -19.2 °C 33992.1 hPa Calm     69 % 0 mm
05:14 -16.4 °C -19.2 °C 33992.1 hPa Calm     69 % 0 mm
05:19 -16.3 °C -19.2 °C 33992.1 hPa Calm     69 % 0 mm
05:24 -16.4 °C -19.1 °C 33992.1 hPa SW 6 km/h   70 % 0 mm
05:29 -16.4 °C -19.3 °C 33992.1 hPa SW 6 km/h 6 km/h 69 % 0 mm
05:34 -16.6 °C -19.4 °C 33992.1 hPa WSW 6 km/h 6 km/h 69 % 0 mm
05:39 -16.5 °C -19.3 °C 33992.1 hPa SW 6 km/h 6 km/h 69 % 0 mm
05:44 -16.6 °C -19.4 °C 33992.1 hPa SW 6 km/h   69 % 0 mm
05:49 -16.6 °C -19.3 °C 33992.1 hPa SE 3.1 km/h 3.1 km/h 70 % 0 mm
05:54 -16.7 °C -19.4 °C 33992.1 hPa SW 6 km/h 6 km/h 70 % 0 mm
05:59 -16.7 °C -19.4 °C 33992.1 hPa SW 3.1 km/h   70 % 0 mm
06:04 -16.7 °C -19.4 °C 33992.1 hPa WSW 6 km/h 6 km/h 70 % 0 mm
06:09 -16.7 °C -19.4 °C 33992.1 hPa SW 6.3 km/h 6.3 km/h 70 % 0 mm
06:14 -16.7 °C -19.4 °C 33992.1 hPa WSW 6 km/h 6 km/h 70 % 0 mm
06:19 -16.8 °C -19.6 °C 33992.1 hPa SW 6 km/h 6 km/h 69 % 0 mm
06:24 -16.8 °C -19.5 °C 34029.3 hPa SW 3.1 km/h   70 % 0 mm
06:29 -16.8 °C -19.6 °C 34029.3 hPa SW 3.7 km/h 3.7 km/h 70 % 0 mm
06:34 -16.8 °C -19.6 °C 34029.3 hPa WSW 6 km/h 6 km/h 70 % 0 mm
06:39 -16.9 °C -19.6 °C 34029.3 hPa SW 3.1 km/h 3.1 km/h 70 % 0 mm
06:44 -16.9 °C -19.5 °C 34029.3 hPa Calm     71 % 0 mm
06:49 -16.9 °C -19.5 °C 34029.3 hPa Calm     71 % 0 mm
06:54 -16.9 °C -19.6 °C 34029.3 hPa SW 3.1 km/h 3.1 km/h 71 % 0 mm
06:59 -17 °C -19.7 °C 34029.3 hPa WNW 2.3 km/h   70 % 0 mm
07:04 -17.1 °C -19.9 °C 34029.3 hPa Calm     69 % 0 mm
07:09 -16.9 °C -19.8 °C 34029.3 hPa Calm     69 % 0 mm
07:14 -16.9 °C -19.8 °C 34029.3 hPa East 5.6 km/h   69 % 0 mm
07:19 -16.9 °C -19.8 °C 34029.3 hPa NNE 6 km/h 6 km/h 69 % 0 mm
07:24 -17 °C -19.9 °C 34063.2 hPa SW 6.8 km/h 6.8 km/h 68 % 0 mm
07:29 -17 °C -20.1 °C 34063.2 hPa West 7.6 km/h 7.6 km/h 67 % 0 mm
07:34 -16.9 °C -20.1 °C 34063.2 hPa Calm     66 % 0 mm
07:39 -16.9 °C -20.1 °C 34063.2 hPa Calm     66 % 0 mm
07:44 -16.9 °C -20.1 °C 34063.2 hPa West 3.1 km/h   66 % 0 mm
07:49 -16.9 °C -20.2 °C 34063.2 hPa Calm     65 % 0 mm
07:54 -16.9 °C -20.2 °C 34063.2 hPa West 3.1 km/h 3.1 km/h 65 % 0 mm
07:59 -16.9 °C -20.1 °C 34063.2 hPa SW 6 km/h 6 km/h 66 % 0 mm
08:04 -16.9 °C -20.1 °C 34063.2 hPa Calm     66 % 0 mm
08:09 -16.9 °C -20.1 °C 34063.2 hPa Calm     66 % 0 mm
08:14 -16.9 °C -20.1 °C 34063.2 hPa Calm     66 % 0 mm
08:19 -16.8 °C -20.1 °C 34063.2 hPa SSW 3.1 km/h   65 % 0 mm
08:24 -16.8 °C -20.1 °C 34063.2 hPa ENE 2.3 km/h   65 % 0 mm
08:29 -16.7 °C -20.1 °C 34063.2 hPa East 5.6 km/h 5.6 km/h 64 % 0 mm
08:34 -16.7 °C -20.1 °C 34063.2 hPa NE 6 km/h 6 km/h 64 % 0 mm
08:39 -16.7 °C -20.2 °C 34063.2 hPa North 6 km/h 6 km/h 63 % 0 mm
08:44 -16.6 °C -20.2 °C 34063.2 hPa ENE 6 km/h 6 km/h 62 % 0 mm
08:49 -16.6 °C -20.2 °C 34063.2 hPa Calm     62 % 0 mm
08:54 -16.5 °C -20.1 °C 34063.2 hPa ENE 6 km/h   63 % 0 mm
08:59 -16.4 °C -20.1 °C 34063.2 hPa Calm     62 % 0 mm
09:04 -16.5 °C -20.2 °C 34063.2 hPa ENE 3.1 km/h 3.1 km/h 61 % 0 mm
09:09 -16.4 °C -20.2 °C 34063.2 hPa NE 10.3 km/h 10.3 km/h 61 % 0 mm
09:14 -16.3 °C -20.2 °C 34063.2 hPa NNW 6 km/h 6 km/h 60 % 0 mm
09:19 -16.2 °C -20.2 °C 34063.2 hPa NNE 6 km/h 6 km/h 59 % 0 mm
09:24 -16.2 °C -20.3 °C 34063.2 hPa ENE 8 km/h 8 km/h 58 % 0 mm
09:29 -16.1 °C -20.2 °C 34063.2 hPa NE 6.3 km/h 6.3 km/h 58 % 0 mm
09:34 -16 °C -20.3 °C 34063.2 hPa ENE 3.1 km/h   57 % 0 mm
09:39 -15.9 °C -20.2 °C 34063.2 hPa ENE 9 km/h 9 km/h 57 % 0 mm
09:44 -15.8 °C -20.1 °C 34063.2 hPa North 7.6 km/h 7.6 km/h 57 % 0 mm
09:49 -15.7 °C -20.2 °C 34063.2 hPa East 6 km/h 6 km/h 56 % 0 mm
09:54 -15.7 °C -20.1 °C 34063.2 hPa ENE 11.9 km/h 11.9 km/h 56 % 0 mm
09:59 -15.5 °C -19.9 °C 34063.2 hPa NNE 11.9 km/h 11.9 km/h 56 % 0 mm
10:05 -15.4 °C -19.9 °C 34063.2 hPa East 6.3 km/h 6.3 km/h 55 % 0 mm
10:10 -15.3 °C -20.1 °C 34063.2 hPa ESE 3.1 km/h 3.1 km/h 54 % 0 mm
10:15 -15 °C -19.6 °C 34063.2 hPa ENE 5.1 km/h 5.1 km/h 55 % 0 mm
10:20 -15 °C -19.8 °C 34063.2 hPa NNE 5.1 km/h 12.9 km/h 54 % 0 mm
10:25 -15 °C -19.9 °C 34063.2 hPa NNE 7.6 km/h 7.6 km/h 53 % 0 mm
10:30 -14.9 °C -19.8 °C 34063.2 hPa NNE 9.3 km/h 9.3 km/h 53 % 0 mm
10:35 -14.8 °C -19.7 °C 34063.2 hPa ENE 7.6 km/h 7.6 km/h 53 % 0 mm
10:40 -14.6 °C -19.6 °C 34063.2 hPa NE 9 km/h 9 km/h 53 % 0 mm
10:45 -14.5 °C -19.6 °C 34063.2 hPa East 9 km/h 9 km/h 52 % 0 mm
10:50 -14.6 °C -19.7 °C 34063.2 hPa SE 3.1 km/h 3.7 km/h 52 % 0 mm
10:55 -14.6 °C -19.7 °C 34063.2 hPa NNE 11.9 km/h 11.9 km/h 52 % 0 mm
11:00 -14.5 °C -19.6 °C 34063.2 hPa East 15 km/h 15 km/h 52 % 0 mm
11:05 -14.5 °C -19.7 °C 34063.2 hPa ESE 9 km/h 9 km/h 51 % 0 mm
11:10 -14.3 °C -19.4 °C 34063.2 hPa NNW 11.9 km/h 11.9 km/h 52 % 0 mm
11:15 -14.2 °C -19.3 °C 34063.2 hPa NNE 15 km/h 15 km/h 52 % 0 mm
11:20 -14.3 °C -19.5 °C 34063.2 hPa East 7.6 km/h 7.6 km/h 51 % 0 mm
11:25 -14.2 °C -19.4 °C 34063.2 hPa North 6 km/h 9.3 km/h 51 % 0 mm
11:30 -14 °C -19.3 °C 34063.2 hPa ESE 9 km/h 9 km/h 51 % 0 mm
11:35 -13.8 °C -19.1 °C 34063.2 hPa NNW 9 km/h 9 km/h 51 % 0 mm
11:40 -13.8 °C -19.1 °C 34063.2 hPa ENE 3.1 km/h 3.1 km/h 51 % 0 mm
11:45 -13.7 °C -18.9 °C 34063.2 hPa WNW 9.3 km/h 9.3 km/h 51 % 0 mm
11:50 -13.6 °C -18.9 °C 34063.2 hPa NE 14 km/h 14 km/h 51 % 0 mm
11:55 -13.7 °C -19.1 °C 34063.2 hPa NE 9 km/h 9 km/h 50 % 0 mm
12:00 -13.8 °C -19.2 °C 34063.2 hPa ENE 15 km/h 15 km/h 50 % 0 mm
12:05 -13.7 °C -19.1 °C 34063.2 hPa NE 14 km/h 14 km/h 50 % 0 mm
12:10 -13.3 °C -18.8 °C 34063.2 hPa ESE 11.9 km/h 11.9 km/h 50 % 0 mm
12:15 -13.4 °C -19.1 °C 34063.2 hPa East 15 km/h 15 km/h 49 % 0 mm
12:20 -13.5 °C -19.1 °C 34063.2 hPa NNE 15 km/h 15 km/h 49 % 0 mm
12:25 -13.3 °C -18.8 °C 34029.3 hPa NW 7.6 km/h 7.6 km/h 50 % 0 mm
12:30 -13.3 °C -18.9 °C 34029.3 hPa ENE 3.7 km/h 3.7 km/h 49 % 0 mm
12:35 -13.2 °C -18.8 °C 34029.3 hPa ESE 11.9 km/h 11.9 km/h 49 % 0 mm
12:40 -12.9 °C -18.7 °C 34097 hPa ESE 11.9 km/h 11.9 km/h 48 % 0 mm
12:45 -12.8 °C -18.4 °C 34097 hPa WSW 6 km/h 6 km/h 49 % 0 mm
12:50 -12.5 °C -18 °C 34097 hPa SW 11.9 km/h 11.9 km/h 50 % 0 mm
12:55 -12.4 °C -18.1 °C 34063.2 hPa WSW 15 km/h 15 km/h 49 % 0 mm
13:00 -12.2 °C -18.1 °C 34063.2 hPa SSE 11.9 km/h 11.9 km/h 48 % 0 mm
13:05 -12.1 °C -17.9 °C 34063.2 hPa West 11.9 km/h 14 km/h 48 % 0 mm
13:10 -12.1 °C -18.1 °C 34063.2 hPa WSW 20.9 km/h 20.9 km/h 47 % 0 mm
13:15 -12 °C -18 °C 34063.2 hPa WSW 6 km/h 6.8 km/h 47 % 0 mm
13:20 -12 °C -18 °C 34063.2 hPa West 15 km/h 15 km/h 47 % 0 mm
13:25 -12.1 °C -18.4 °C 34029.3 hPa WSW 11.9 km/h 11.9 km/h 45 % 0 mm
13:30 -11.8 °C -18.4 °C 34029.3 hPa WSW 11.9 km/h 11.9 km/h 44 % 0 mm
13:35 -11.7 °C -18.2 °C 34029.3 hPa WSW 9 km/h 9 km/h 44 % 0 mm
13:40 -11.6 °C -18.3 °C 33992.1 hPa SW 11.9 km/h 11.9 km/h 43 % 0 mm
13:45 -11.6 °C -18.3 °C 33992.1 hPa NW 6 km/h 6 km/h 43 % 0 mm
13:50 -11.6 °C -18.3 °C 33992.1 hPa WSW 9 km/h 9 km/h 43 % 0 mm
13:55 -11.7 °C -18.6 °C 33992.1 hPa WSW 9.3 km/h 9.3 km/h 42 % 0 mm
14:00 -11.7 °C -18.6 °C 33992.1 hPa WNW 15 km/h 15 km/h 42 % 0 mm
14:05 -11.6 °C -18.7 °C 33992.1 hPa SW 15 km/h 15 km/h 41 % 0 mm
14:10 -11.5 °C -18.8 °C 33992.1 hPa West 15 km/h 15 km/h 40 % 0 mm
14:15 -11.4 °C -18.7 °C 33992.1 hPa WNW 6.3 km/h 6.8 km/h 40 % 0 mm
14:20 -11.4 °C -18.9 °C 33992.1 hPa West 15 km/h 15 km/h 39 % 0 mm
14:25 -11.3 °C -18.8 °C 33992.1 hPa WSW 12.2 km/h 12.2 km/h 39 % 0 mm
14:30 -11.2 °C -18.9 °C 33992.1 hPa WNW 9 km/h 9 km/h 38 % 0 mm
14:35 -11.2 °C -19.1 °C 33992.1 hPa SW 15 km/h 15 km/h 37 % 0 mm
14:40 -11.1 °C -19.1 °C 33958.2 hPa SW 15 km/h 15 km/h 37 % 0 mm
14:45 -11.1 °C -19.2 °C 33958.2 hPa WNW 11.9 km/h 11.9 km/h 36 % 0 mm
14:50 -11 °C -19.1 °C 33958.2 hPa WSW 15 km/h 15 km/h 36 % 0 mm
14:55 -11 °C -19.1 °C 33992.1 hPa WSW 15.3 km/h 15.3 km/h 36 % 0 mm
15:00 -11.1 °C -19.7 °C 33992.1 hPa East 29.8 km/h 29.8 km/h 34 % 0 mm
15:05 -11.2 °C -19.8 °C 33992.1 hPa SW 6 km/h 6 km/h 34 % 0 mm
15:10 -11.1 °C -19.7 °C 33992.1 hPa WSW 9.3 km/h 9.3 km/h 34 % 0 mm
15:15 -11.2 °C -19.7 °C 33992.1 hPa West 11.9 km/h 11.9 km/h 34 % 0 mm
15:20 -11.2 °C -20 °C 33992.1 hPa WSW 15 km/h 15 km/h 33 % 0 mm
15:25 -11.2 °C -20.2 °C 33992.1 hPa NNE 6 km/h 6 km/h 32 % 0 mm
15:30 -11.3 °C -20.3 °C 33992.1 hPa WNW 11.9 km/h 11.9 km/h 32 % 0 mm
15:35 -11.3 °C -20.3 °C 33992.1 hPa West 11.9 km/h 11.9 km/h 32 % 0 mm
15:40 -11.3 °C -20.3 °C 33992.1 hPa WNW 6.3 km/h 6.3 km/h 32 % 0 mm
15:45 -11.3 °C -20.3 °C 33992.1 hPa WNW 6 km/h 6 km/h 32 % 0 mm
15:50 -11.3 °C -20.1 °C 33992.1 hPa NNW 11.9 km/h   33 % 0 mm
15:55 -11.1 °C -19.9 °C 33992.1 hPa WSW 11.9 km/h 11.9 km/h 33 % 0 mm
16:00 -10.9 °C -19.8 °C 33992.1 hPa WSW 3.1 km/h 3.7 km/h 33 % 0 mm
16:05 -10.9 °C -19.8 °C 33992.1 hPa SSW 9 km/h 9 km/h 33 % 0 mm
16:10 -11.1 °C -19.8 °C 33992.1 hPa SW 9 km/h 9 km/h 33 % 0 mm
16:15 -10.9 °C -19.5 °C 33992.1 hPa West 9 km/h 9 km/h 34 % 0 mm
16:20 -11 °C -19.6 °C 33992.1 hPa SW 11.9 km/h 11.9 km/h 34 % 0 mm
16:25 -11.1 °C -19.7 °C 33992.1 hPa SW 17.9 km/h 17.9 km/h 34 % 0 mm
16:30 -11.2 °C -19.7 °C 33992.1 hPa SSW 11.9 km/h 11.9 km/h 34 % 0 mm
16:35 -11.1 °C -19.4 °C 33992.1 hPa West 17.9 km/h 17.9 km/h 35 % 0 mm
16:40 -11.1 °C -19.4 °C 33992.1 hPa WSW 12.7 km/h 12.7 km/h 35 % 0 mm
16:45 -11.1 °C -19.4 °C 33992.1 hPa South 6.3 km/h 6.3 km/h 35 % 0 mm
16:50 -11.2 °C -19.6 °C 33992.1 hPa SW 11.9 km/h 11.9 km/h 35 % 0 mm
16:55 -11.3 °C -19.6 °C 33992.1 hPa SSW 11.9 km/h 11.9 km/h 35 % 0 mm
17:00 -11.3 °C -19.6 °C 33992.1 hPa WSW 6.8 km/h 6.8 km/h 35 % 0 mm
17:05 -11.2 °C -19.6 °C 33992.1 hPa SSW 9 km/h 9 km/h 35 % 0 mm
17:10 -11.3 °C -19.6 °C 33992.1 hPa WSW 6 km/h 7.6 km/h 35 % 0 mm
17:15 -11.3 °C -19.7 °C 33992.1 hPa SW 15 km/h 15 km/h 35 % 0 mm
17:20 -11.5 °C -19.8 °C 33992.1 hPa West 11.9 km/h 11.9 km/h 35 % 0 mm
17:25 -11.6 °C -19.9 °C 33992.1 hPa WSW 15 km/h 15 km/h 35 % 0 mm
17:30 -11.6 °C -19.7 °C 33992.1 hPa SSW 12.7 km/h 12.7 km/h 36 % 0 mm
17:35 -11.8 °C -20.1 °C 33992.1 hPa SW 20.9 km/h 20.9 km/h 35 % 0 mm
17:40 -12 °C -20.2 °C 33992.1 hPa SW 17.9 km/h 17.9 km/h 35 % 0 mm
17:45 -12.2 °C -20.4 °C 33992.1 hPa SW 11.9 km/h 11.9 km/h 35 % 0 mm
17:50 -12.1 °C -20.3 °C 33992.1 hPa SSW 6.3 km/h 6.3 km/h 35 % 0 mm
17:55 -12.2 °C -20.4 °C 33992.1 hPa SSE 7.6 km/h 7.6 km/h 35 % 0 mm
18:00 -12.3 °C -20.5 °C 33992.1 hPa ESE 9 km/h 9 km/h 35 % 0 mm
18:05 -12.6 °C -21 °C 33992.1 hPa ESE 15 km/h 15 km/h 34 % 0 mm
18:10 -12.9 °C -20.7 °C 34029.3 hPa NE 9 km/h 9 km/h 37 % 0 mm
18:15 -13.1 °C -20.4 °C 34029.3 hPa NE 6 km/h 6 km/h 39 % 0 mm
18:20 -13.2 °C -20.3 °C 34029.3 hPa NE 15 km/h 15 km/h 40 % 0 mm
18:25 -13.4 °C -20.3 °C 34029.3 hPa ENE 15 km/h 15 km/h 41 % 0 mm
18:30 -13.4 °C -20.4 °C 34029.3 hPa NE 12.7 km/h 12.7 km/h 41 % 0 mm
18:35 -13.6 °C -20.1 °C 34029.3 hPa ESE 12.7 km/h 12.7 km/h 43 % 0 mm
18:40 -13.6 °C -20 °C 34029.3 hPa ENE 11.9 km/h 11.9 km/h 44 % 0 mm
18:45 -13.7 °C -20.1 °C 34029.3 hPa ENE 15.3 km/h 15.3 km/h 44 % 0 mm
18:50 -13.7 °C -19.9 °C 34029.3 hPa ENE 17.9 km/h 17.9 km/h 45 % 0 mm
18:55 -13.8 °C -19.8 °C 34063.2 hPa ENE 9 km/h 10.3 km/h 46 % 0 mm
19:00 -13.8 °C -19.9 °C 34063.2 hPa East 15 km/h 15 km/h 46 % 0 mm
19:05 -13.9 °C -19.8 °C 34063.2 hPa East 11.9 km/h 11.9 km/h 47 % 0 mm
19:10 -13.9 °C -19.8 °C 34063.2 hPa ESE 9.3 km/h 9.3 km/h 47 % 0 mm
19:15 -13.9 °C -19.8 °C 34063.2 hPa East 15 km/h 15 km/h 47 % 0 mm
19:20 -14 °C -19.7 °C 34063.2 hPa NE 6 km/h 6 km/h 48 % 0 mm
19:25 -14.1 °C -19.8 °C 34097 hPa NE 9.3 km/h 9.3 km/h 48 % 0 mm
19:30 -14.1 °C -19.7 °C 34097 hPa East 6.3 km/h 6.3 km/h 49 % 0 mm
19:35 -14.2 °C -19.7 °C 34097 hPa ENE 6 km/h 6 km/h 49 % 0 mm
19:40 -14.2 °C -19.7 °C 34063.2 hPa ENE 9 km/h 9 km/h 49 % 0 mm
19:45 -14.2 °C -19.6 °C 34063.2 hPa East 6.3 km/h 6.3 km/h 50 % 0 mm
19:50 -14.3 °C -19.7 °C 34063.2 hPa NE 9 km/h 9 km/h 50 % 0 mm
19:55 -14.3 °C -19.7 °C 34063.2 hPa East 6 km/h 6 km/h 50 % 0 mm
20:00 -14.3 °C -19.7 °C 34063.2 hPa East 6 km/h 6 km/h 50 % 0 mm
20:05 -14.4 °C -19.8 °C 34063.2 hPa ENE 3.1 km/h 3.1 km/h 50 % 0 mm
20:10 -14.4 °C -19.7 °C 34063.2 hPa Calm     51 % 0 mm
20:15 -14.4 °C -19.7 °C 34063.2 hPa ENE 6 km/h 6 km/h 51 % 0 mm
20:20 -14.5 °C -19.7 °C 34063.2 hPa ENE 5.1 km/h   51 % 0 mm
20:25 -14.5 °C -19.7 °C 34029.3 hPa ENE 3.1 km/h   51 % 0 mm
20:30 -14.6 °C -19.8 °C 34029.3 hPa NNE 6 km/h 6 km/h 51 % 0 mm
20:35 -14.6 °C -19.8 °C 34029.3 hPa Calm     51 % 0 mm
20:40 -14.7 °C -19.9 °C 34063.2 hPa Calm     51 % 0 mm
20:45 -14.7 °C -19.9 °C 34063.2 hPa Calm     51 % 0 mm
20:50 -14.7 °C -19.9 °C 34063.2 hPa NNE 3.1 km/h 3.1 km/h 51 % 0 mm
20:55 -14.8 °C -19.8 °C 34063.2 hPa NE 6 km/h 6 km/h 52 % 0 mm
21:00 -14.9 °C -19.9 °C 34063.2 hPa NNE 3.1 km/h 3.1 km/h 52 % 0 mm
21:05 -14.9 °C -19.9 °C 34063.2 hPa NNE 5.1 km/h   52 % 0 mm
21:10 -14.9 °C -19.9 °C 34063.2 hPa Calm     52 % 0 mm
21:15 -15 °C -20.1 °C 34063.2 hPa Calm     52 % 0 mm
21:20 -15 °C -20.1 °C 34063.2 hPa Calm     52 % 0 mm
21:25 -15.1 °C -20.1 °C 34029.3 hPa Calm     52 % 0 mm
21:30 -15.1 °C -20.1 °C 34029.3 hPa Calm     52 % 0 mm
21:35 -15.2 °C -20.2 °C 34029.3 hPa Calm     52 % 0 mm
21:40 -15.2 °C -20.1 °C 34063.2 hPa Calm     53 % 0 mm
21:45 -15.3 °C -20.2 °C 34063.2 hPa Calm     53 % 0 mm
21:50 -15.3 °C -20.2 °C 34063.2 hPa Calm     53 % 0 mm
21:55 -15.3 °C -20.2 °C 34063.2 hPa Calm     53 % 0 mm
22:00 -15.4 °C -20.3 °C 34063.2 hPa Calm     53 % 0 mm
22:05 -15.6 °C -20.4 °C 34063.2 hPa Calm     53 % 0 mm
22:10 -15.6 °C -20.4 °C 34063.2 hPa WNW 3.7 km/h 3.7 km/h 53 % 0 mm
22:15 -15.6 °C -20.3 °C 34063.2 hPa Calm     54 % 0 mm
22:20 -15.7 °C -20.4 °C 34063.2 hPa Calm     54 % 0 mm
22:25 -15.7 °C -20.4 °C 34063.2 hPa Calm     54 % 0 mm
22:30 -15.7 °C -20.4 °C 34063.2 hPa Calm     54 % 0 mm
22:35 -15.7 °C -20.3 °C 34063.2 hPa Calm     55 % 0 mm
22:40 -15.7 °C -20.3 °C 34063.2 hPa Calm     55 % 0 mm
22:46 -15.7 °C -20.3 °C 34063.2 hPa WNW 3.7 km/h 3.7 km/h 55 % 0 mm
22:51 -15.7 °C -20.3 °C 34063.2 hPa WNW 5.1 km/h 5.1 km/h 55 % 0 mm
22:56 -15.7 °C -20.3 °C 34063.2 hPa WNW 4.2 km/h 4.2 km/h 55 % 0 mm
23:01 -15.7 °C -20.2 °C 34063.2 hPa SW 6 km/h 6 km/h 55 % 0 mm
23:06 -15.7 °C -20.2 °C 34063.2 hPa SW 4.2 km/h 4.2 km/h 55 % 0 mm
23:11 -15.7 °C -20.2 °C 34063.2 hPa SW 3.1 km/h   55 % 0 mm
23:16 -15.7 °C -20.2 °C 34063.2 hPa Calm     56 % 0 mm
23:21 -15.7 °C -20.2 °C 34063.2 hPa Calm     56 % 0 mm
23:26 -15.7 °C -20.2 °C 34029.3 hPa Calm     56 % 0 mm
Meteo Sesrovires
Elogis d' Weather Underground - 4 mb

Guio original per  Jim McMurry - jmcmurry@mwt.net Adaptat per a la plantilla per  Wim van der Kuil - Leuven-Template.eu

Trobareu la nostra informacio del temps tambe a:

Weather Underground

AWEKAS